Time;durP1;ratioP1;P1;durP2;ratioP2;P2;SDS_P1;SDS_P2;PMS_P1;PMS_P2;Temp;Humidity;BMP_temperature;BMP_pressure;BME280_temperature;BME280_humidity;BME280_pressure;Samples;Min_cycle;Max_cycle;Signal;HPM_P1;HPM_P2
2020/12/30 00:02:23;;;;;;;4.07;1.95;;;23.10;33.40;;;;;;6223490;27;80842;-53
2020/12/30 00:05:24;;;;;;;3.85;1.90;;;23.10;33.50;;;;;;6249636;27;80714;-53
2020/12/30 00:08:25;;;;;;;3.58;1.75;;;23.10;33.40;;;;;;6232452;27;84498;-52
2020/12/30 00:11:44;;;;;;;3.53;1.92;;;23.10;33.60;;;;;;6217364;27;80586;-54
2020/12/30 00:14:44;;;;;;;4.57;2.38;;;23.10;33.80;;;;;;6230091;27;80555;-56
2020/12/30 00:17:45;;;;;;;3.35;1.85;;;23.10;33.70;;;;;;6248134;27;88639;-53
2020/12/30 00:20:45;;;;;;;3.22;1.73;;;23.10;33.70;;;;;;6241477;27;80419;-55
2020/12/30 00:23:46;;;;;;;3.72;2.20;;;23.10;33.70;;;;;;6222077;27;83393;-53
2020/12/30 00:26:46;;;;;;;3.50;2.00;;;23.10;33.80;;;;;;6247789;27;80854;-51
2020/12/30 00:29:47;;;;;;;3.33;2.05;;;23.10;33.80;;;;;;6237708;27;80381;-53
2020/12/30 00:32:47;;;;;;;5.25;2.47;;;23.10;33.80;;;;;;6232044;27;80936;-53
2020/12/30 00:35:48;;;;;;;5.95;2.28;;;23.10;34.00;;;;;;6246909;27;83660;-55
2020/12/30 00:38:48;;;;;;;4.72;2.30;;;23.10;33.80;;;;;;6239546;27;80897;-56
2020/12/30 00:41:49;;;;;;;6.03;2.45;;;23.10;33.90;;;;;;6233392;27;80517;-55
2020/12/30 00:44:49;;;;;;;4.15;2.17;;;23.10;33.90;;;;;;6246857;27;81542;-50
2020/12/30 00:47:50;;;;;;;3.33;2.20;;;23.10;34.00;;;;;;6246535;27;81047;-54
2020/12/30 00:50:51;;;;;;;4.68;2.20;;;23.10;34.00;;;;;;6246736;27;87767;-53
2020/12/30 00:53:51;;;;;;;3.15;2.05;;;23.10;34.00;;;;;;6226413;27;80621;-53
2020/12/30 00:56:52;;;;;;;4.50;2.33;;;23.10;33.90;;;;;;6230846;27;81902;-54
2020/12/30 00:59:56;;;;;;;4.20;2.10;;;23.10;33.70;;;;;;6238306;28;82856;-52
2020/12/30 01:03:01;;;;;;;3.60;2.33;;;23.10;33.90;;;;;;6234001;28;81402;-53
2020/12/30 01:06:02;;;;;;;6.55;2.83;;;23.10;33.70;;;;;;6230405;27;81493;-54
2020/12/30 01:09:02;;;;;;;4.85;2.17;;;23.10;33.70;;;;;;6225018;27;80709;-54
2020/12/30 01:12:03;;;;;;;4.97;2.60;;;23.10;33.80;;;;;;6234512;27;81795;-51
2020/12/30 01:15:03;;;;;;;4.93;2.33;;;23.00;33.70;;;;;;6245972;27;80523;-51
2020/12/30 01:18:04;;;;;;;3.90;2.30;;;23.10;33.60;;;;;;6247471;27;80449;-54
2020/12/30 01:21:04;;;;;;;4.40;2.33;;;23.00;33.80;;;;;;6249172;27;80527;-55
2020/12/30 01:24:05;;;;;;;5.38;2.60;;;23.00;33.80;;;;;;6245719;27;84222;-53
2020/12/30 01:27:05;;;;;;;4.35;2.38;;;23.00;33.70;;;;;;6236248;27;80359;-54
2020/12/30 01:30:06;;;;;;;5.35;2.60;;;23.00;33.60;;;;;;6221226;27;80978;-54
2020/12/30 01:33:06;;;;;;;4.50;2.30;;;23.00;33.60;;;;;;6225300;27;80685;-54
2020/12/30 01:36:07;;;;;;;3.28;1.80;;;23.00;33.70;;;;;;6221355;27;81615;-55
2020/12/30 01:39:08;;;;;;;5.55;2.78;;;23.00;33.70;;;;;;6235707;27;80676;-51
2020/12/30 01:42:08;;;;;;;5.20;2.30;;;23.00;33.80;;;;;;6241657;27;80294;-54
2020/12/30 01:45:09;;;;;;;3.85;1.98;;;23.00;33.90;;;;;;6251229;27;80898;-55
2020/12/30 01:48:09;;;;;;;5.20;2.47;;;23.00;33.70;;;;;;6223578;27;83111;-56
2020/12/30 01:51:10;;;;;;;4.05;2.15;;;23.00;33.90;;;;;;6240798;27;88403;-53
2020/12/30 01:54:10;;;;;;;3.00;1.83;;;23.00;33.90;;;;;;6239740;27;80724;-55
2020/12/30 01:57:11;;;;;;;4.82;2.63;;;23.00;33.90;;;;;;6239963;27;80658;-55
2020/12/30 02:00:11;;;;;;;6.25;2.60;;;22.90;33.90;;;;;;6250318;27;80633;-53
2020/12/30 02:03:12;;;;;;;4.53;2.10;;;23.00;34.00;;;;;;6248030;27;80465;-55
2020/12/30 02:06:12;;;;;;;5.68;2.10;;;23.00;34.10;;;;;;6241401;27;83237;-54
2020/12/30 02:09:13;;;;;;;4.95;2.65;;;23.00;34.10;;;;;;6239216;27;80678;-54
2020/12/30 02:12:13;;;;;;;3.25;2.15;;;23.00;34.10;;;;;;6251469;27;80580;-54
2020/12/30 02:15:14;;;;;;;3.88;2.25;;;23.00;34.20;;;;;;6233059;28;80840;-53
2020/12/30 02:18:14;;;;;;;4.25;2.40;;;23.00;34.10;;;;;;6232477;27;81700;-55
2020/12/30 02:21:15;;;;;;;5.53;2.88;;;23.00;34.20;;;;;;6248573;27;82728;-54
2020/12/30 02:24:15;;;;;;;6.05;2.70;;;23.00;34.10;;;;;;6237678;27;80620;-55
2020/12/30 02:27:16;;;;;;;4.90;2.40;;;23.00;34.00;;;;;;6240882;27;80513;-54
2020/12/30 02:30:16;;;;;;;4.57;2.20;;;23.00;34.10;;;;;;6248316;27;80564;-50
2020/12/30 02:33:17;;;;;;;5.57;2.60;;;23.00;34.10;;;;;;6242265;27;80891;-50
2020/12/30 02:36:17;;;;;;;4.38;2.58;;;23.00;34.30;;;;;;6252358;27;81038;-52
2020/12/30 02:39:18;;;;;;;5.00;2.47;;;22.90;34.30;;;;;;6240170;27;80205;-51
2020/12/30 02:42:18;;;;;;;4.13;2.28;;;22.90;33.90;;;;;;6237465;27;82229;-50
2020/12/30 02:45:19;;;;;;;4.80;2.67;;;22.90;34.00;;;;;;6247313;27;81371;-51
2020/12/30 02:48:20;;;;;;;5.03;2.55;;;22.90;34.10;;;;;;6250384;27;80339;-54
2020/12/30 02:51:20;;;;;;;5.57;2.72;;;22.90;33.80;;;;;;6244919;27;80715;-52
2020/12/30 02:54:21;;;;;;;4.70;2.25;;;22.90;33.90;;;;;;6238580;27;80382;-51
2020/12/30 02:57:21;;;;;;;4.68;2.53;;;22.90;34.00;;;;;;6235274;27;80304;-53
2020/12/30 03:00:22;;;;;;;7.63;3.42;;;22.90;33.90;;;;;;6226856;27;80686;-52
2020/12/30 03:03:24;;;;;;;7.20;3.22;;;22.90;33.80;;;;;;6216075;28;81786;-54
2020/12/30 03:06:24;;;;;;;6.18;2.67;;;22.90;33.80;;;;;;6236163;27;80828;-54
2020/12/30 03:09:25;;;;;;;6.03;3.03;;;22.90;33.80;;;;;;6250008;27;81662;-53
2020/12/30 03:12:26;;;;;;;5.90;3.30;;;22.90;33.80;;;;;;6249335;27;82583;-53
2020/12/30 03:15:26;;;;;;;8.15;3.25;;;22.90;33.90;;;;;;6252211;27;80198;-51
2020/12/30 03:18:27;;;;;;;6.53;3.40;;;22.90;33.70;;;;;;6239489;27;81005;-55
2020/12/30 03:21:27;;;;;;;6.85;3.13;;;22.90;33.90;;;;;;6251896;27;80798;-55
2020/12/30 03:24:28;;;;;;;6.20;3.20;;;22.90;33.80;;;;;;6236515;27;80546;-54
2020/12/30 03:27:28;;;;;;;6.10;3.33;;;22.90;33.70;;;;;;6234336;27;82563;-52
2020/12/30 03:30:29;;;;;;;7.95;3.53;;;22.80;33.60;;;;;;6226324;27;80691;-53
2020/12/30 03:33:29;;;;;;;6.55;3.58;;;22.80;33.60;;;;;;6225696;27;81145;-54
2020/12/30 03:36:30;;;;;;;5.07;2.80;;;22.90;33.80;;;;;;6244684;27;86843;-52
2020/12/30 03:39:30;;;;;;;7.28;3.83;;;22.80;33.80;;;;;;6233635;27;80684;-55
2020/12/30 03:42:31;;;;;;;6.43;3.58;;;22.80;33.60;;;;;;6240611;27;81661;-52
2020/12/30 03:45:32;;;;;;;6.88;3.63;;;22.80;33.70;;;;;;6226750;27;80712;-52
2020/12/30 03:48:32;;;;;;;7.47;3.65;;;22.80;33.50;;;;;;6228522;27;81029;-54
2020/12/30 03:51:33;;;;;;;6.85;3.58;;;22.80;33.50;;;;;;6219684;27;81129;-54
2020/12/30 03:54:33;;;;;;;7.45;3.15;;;22.80;33.80;;;;;;6241094;27;80384;-54
2020/12/30 03:57:34;;;;;;;8.63;4.03;;;22.80;34.00;;;;;;6240959;27;80608;-54
2020/12/30 04:00:34;;;;;;;6.03;3.40;;;22.80;34.30;;;;;;6233903;27;81195;-53
2020/12/30 04:03:35;;;;;;;8.50;4.30;;;22.80;33.90;;;;;;6226293;27;81599;-55
2020/12/30 04:06:35;;;;;;;6.85;3.50;;;22.80;34.10;;;;;;6239472;27;81082;-54
2020/12/30 04:09:36;;;;;;;7.22;4.10;;;22.80;34.30;;;;;;6223805;28;80897;-55
2020/12/30 04:12:36;;;;;;;7.65;4.00;;;22.80;34.10;;;;;;6225881;27;80667;-55
2020/12/30 04:15:37;;;;;;;7.85;4.40;;;22.80;34.00;;;;;;6217924;27;80346;-56
2020/12/30 04:18:37;;;;;;;6.30;3.75;;;22.80;33.60;;;;;;6225396;27;80606;-55
2020/12/30 04:21:39;;;;;;;6.60;3.90;;;22.90;33.70;;;;;;6225940;28;80431;-55
2020/12/30 04:24:39;;;;;;;7.15;3.95;;;22.90;33.50;;;;;;6224528;27;80486;-55
2020/12/30 04:27:40;;;;;;;6.15;4.00;;;22.90;33.00;;;;;;6226534;27;80181;-55
2020/12/30 04:30:40;;;;;;;7.85;4.20;;;22.90;32.90;;;;;;6225844;27;80868;-55
2020/12/30 04:33:41;;;;;;;6.90;3.65;;;23.00;33.00;;;;;;6240225;27;81018;-54
2020/12/30 04:36:41;;;;;;;7.15;4.05;;;23.00;33.00;;;;;;6240999;27;81431;-52
2020/12/30 04:39:42;;;;;;;9.88;4.53;;;23.00;32.90;;;;;;6216870;27;83068;-55
2020/12/30 04:42:42;;;;;;;6.90;4.18;;;23.00;33.10;;;;;;6237689;27;87204;-54
2020/12/30 04:45:43;;;;;;;7.07;4.10;;;23.00;33.20;;;;;;6243318;27;80359;-55
2020/12/30 04:48:43;;;;;;;10.82;4.30;;;23.10;33.10;;;;;;6249969;27;81018;-53
2020/12/30 04:51:44;;;;;;;7.30;4.13;;;23.10;33.00;;;;;;6241788;27;81465;-53
2020/12/30 04:54:44;;;;;;;8.98;4.43;;;23.10;32.80;;;;;;6246101;27;80403;-54
2020/12/30 04:57:45;;;;;;;8.77;4.35;;;23.10;33.00;;;;;;6235127;27;81296;-55
2020/12/30 05:00:45;;;;;;;7.20;4.43;;;23.10;32.90;;;;;;6239075;27;81303;-56
2020/12/30 05:03:46;;;;;;;9.38;5.05;;;23.10;33.00;;;;;;6248840;27;81339;-55
2020/12/30 05:06:47;;;;;;;7.95;4.47;;;23.10;33.10;;;;;;6247281;27;80607;-55
2020/12/30 05:09:47;;;;;;;8.32;4.53;;;23.10;33.10;;;;;;6237773;27;81626;-54
2020/12/30 05:12:48;;;;;;;8.98;4.72;;;23.10;33.00;;;;;;6245771;27;80376;-55
2020/12/30 05:15:48;;;;;;;6.78;4.05;;;23.10;33.20;;;;;;6246821;27;80839;-55
2020/12/30 05:18:50;;;;;;;8.27;4.82;;;23.20;33.30;;;;;;6250529;27;81666;-55
2020/12/30 05:21:50;;;;;;;7.53;4.15;;;23.20;33.20;;;;;;6241133;27;80688;-55
2020/12/30 05:24:51;;;;;;;11.50;5.07;;;23.20;33.40;;;;;;6250406;27;80737;-52
2020/12/30 05:27:51;;;;;;;8.80;4.60;;;23.20;33.20;;;;;;6251382;27;80344;-55
2020/12/30 05:30:52;;;;;;;9.23;5.00;;;23.20;33.10;;;;;;6250831;27;81578;-51
2020/12/30 05:33:52;;;;;;;8.68;5.22;;;23.20;33.10;;;;;;6251511;27;81647;-55
2020/12/30 05:36:53;;;;;;;8.77;4.60;;;23.20;32.90;;;;;;6251055;27;82179;-55
2020/12/30 05:39:53;;;;;;;8.98;5.07;;;23.20;33.00;;;;;;6251048;27;81296;-55
2020/12/30 05:42:54;;;;;;;8.93;4.80;;;23.30;32.80;;;;;;6244730;27;83283;-54
2020/12/30 05:45:54;;;;;;;11.80;5.32;;;23.30;32.90;;;;;;6237219;27;81492;-52
2020/12/30 05:48:55;;;;;;;6.10;3.92;;;23.30;33.00;;;;;;6226889;27;80928;-56
2020/12/30 05:51:55;;;;;;;10.40;5.00;;;23.30;32.80;;;;;;6237577;27;80906;-54
2020/12/30 05:54:56;;;;;;;8.95;4.88;;;23.40;32.60;;;;;;6238865;27;80900;-56
2020/12/30 05:57:56;;;;;;;11.50;5.55;;;23.30;33.30;;;;;;6236228;27;80414;-55
2020/12/30 06:00:57;;;;;;;11.38;5.90;;;23.40;33.00;;;;;;6242354;27;80385;-55
2020/12/30 06:03:57;;;;;;;11.90;5.47;;;23.40;35.10;;;;;;6241948;27;80454;-54
2020/12/30 06:06:58;;;;;;;13.90;5.82;;;23.40;34.00;;;;;;6247654;27;84007;-55
2020/12/30 06:09:58;;;;;;;14.88;6.18;;;23.40;35.00;;;;;;6248562;27;81647;-53
2020/12/30 06:12:59;;;;;;;14.30;6.50;;;23.40;35.00;;;;;;6253270;27;80877;-55
2020/12/30 06:16:00;;;;;;;18.33;6.88;;;23.50;35.00;;;;;;6246394;27;80639;-54
2020/12/30 06:19:00;;;;;;;18.35;6.85;;;23.40;35.10;;;;;;6224112;27;81583;-55
2020/12/30 06:22:01;;;;;;;10.48;6.45;;;23.50;35.20;;;;;;6216673;27;81030;-56
2020/12/30 06:25:01;;;;;;;12.23;6.30;;;23.50;35.40;;;;;;6228424;27;80992;-55
2020/12/30 06:28:02;;;;;;;11.57;6.00;;;23.50;35.30;;;;;;6241631;27;81344;-56
2020/12/30 06:31:02;;;;;;;12.13;5.75;;;23.40;35.90;;;;;;6251392;27;80993;-58
2020/12/30 06:34:03;;;;;;;11.30;5.55;;;23.40;35.80;;;;;;6250092;27;80765;-55
2020/12/30 06:37:03;;;;;;;12.27;5.82;;;23.40;35.40;;;;;;6223198;27;83314;-55
2020/12/30 06:40:04;;;;;;;13.07;6.72;;;23.40;35.70;;;;;;6236435;27;81615;-57
2020/12/30 06:43:04;;;;;;;12.13;7.18;;;23.30;36.70;;;;;;6250695;27;81617;-56
2020/12/30 06:46:05;;;;;;;11.27;6.10;;;23.30;37.70;;;;;;6248795;27;81214;-56
2020/12/30 06:49:06;;;;;;;10.85;6.22;;;23.30;38.20;;;;;;6248732;27;83002;-55
2020/12/30 06:52:06;;;;;;;12.98;6.10;;;23.20;38.70;;;;;;6250123;27;80780;-57
2020/12/30 06:55:07;;;;;;;18.23;6.72;;;23.20;39.30;;;;;;6235228;27;81793;-58
2020/12/30 06:58:07;;;;;;;12.73;5.97;;;23.20;39.90;;;;;;6228383;27;80923;-54
2020/12/30 07:01:08;;;;;;;15.27;7.65;;;23.20;40.30;;;;;;6242460;27;80451;-55
2020/12/30 07:04:08;;;;;;;12.75;6.93;;;23.20;40.60;;;;;;6228721;27;80909;-57
2020/12/30 07:07:09;;;;;;;12.55;6.40;;;23.20;40.70;;;;;;6218699;28;81090;-56
2020/12/30 07:10:09;;;;;;;12.43;6.85;;;23.20;40.70;;;;;;6242981;27;80712;-55
2020/12/30 07:13:10;;;;;;;12.85;6.47;;;23.20;40.60;;;;;;6231795;27;80730;-56
2020/12/30 07:16:10;;;;;;;13.10;6.63;;;23.20;40.80;;;;;;6224243;27;80785;-53
2020/12/30 07:19:11;;;;;;;12.90;6.30;;;23.20;40.70;;;;;;6232294;28;80636;-57
2020/12/30 07:22:12;;;;;;;12.02;6.57;;;23.10;40.70;;;;;;6238734;27;81454;-55
2020/12/30 07:25:12;;;;;;;11.15;5.80;;;23.10;41.20;;;;;;6228622;27;80940;-55
2020/12/30 07:28:13;;;;;;;13.07;7.18;;;23.10;41.20;;;;;;6222806;27;80490;-56
2020/12/30 07:31:13;;;;;;;18.08;7.10;;;23.20;41.80;;;;;;6237053;27;80872;-55
2020/12/30 07:34:14;;;;;;;19.92;8.18;;;23.20;42.80;;;;;;6242043;27;80716;-54
2020/12/30 07:37:14;;;;;;;14.75;7.60;;;23.30;43.80;;;;;;6236619;27;80651;-58
2020/12/30 07:40:15;;;;;;;15.38;7.82;;;23.30;44.50;;;;;;6237376;27;80722;-56
2020/12/30 07:43:15;;;;;;;13.23;7.75;;;23.30;44.90;;;;;;6248421;27;81320;-58
2020/12/30 07:46:16;;;;;;;17.13;8.63;;;23.30;45.40;;;;;;6247732;27;82189;-55
2020/12/30 07:49:16;;;;;;;160.10;55.83;;;23.30;45.60;;;;;;6250768;27;80773;-55
2020/12/30 07:52:17;;;;;;;341.50;120.13;;;23.20;49.40;;;;;;6239692;27;83550;-56
2020/12/30 07:55:18;;;;;;;563.70;208.13;;;23.40;45.40;;;;;;6239191;27;85655;-55
2020/12/30 07:58:18;;;;;;;473.13;173.93;;;23.20;45.00;;;;;;6243540;27;85994;-54
2020/12/30 08:01:19;;;;;;;419.50;148.68;;;23.40;45.40;;;;;;6242692;27;86047;-56
2020/12/30 08:04:19;;;;;;;337.60;121.32;;;23.40;45.80;;;;;;6242740;27;86066;-53
2020/12/30 08:07:20;;;;;;;305.77;114.25;;;23.50;45.60;;;;;;6240405;27;85492;-54
2020/12/30 08:10:20;;;;;;;272.08;104.07;;;23.40;45.50;;;;;;6226137;27;85796;-54
2020/12/30 08:13:21;;;;;;;260.00;92.25;;;23.40;46.00;;;;;;6223317;27;86691;-54
2020/12/30 08:16:21;;;;;;;214.68;84.13;;;23.50;46.10;;;;;;6227088;27;86188;-54
2020/12/30 08:19:22;;;;;;;195.57;76.47;;;23.50;46.20;;;;;;6237796;27;83373;-55
2020/12/30 08:22:24;;;;;;;192.77;71.35;;;23.50;46.30;;;;;;6239985;27;83939;-53
2020/12/30 08:25:24;;;;;;;167.13;62.47;;;23.50;46.30;;;;;;6232472;27;85554;-55
2020/12/30 08:28:25;;;;;;;154.25;60.20;;;23.40;69.90;;;;;;6217873;27;85478;-53
2020/12/30 08:31:25;;;;;;;133.80;52.58;;;23.60;46.40;;;;;;6221406;27;84700;-55
2020/12/30 08:34:26;;;;;;;136.57;53.25;;;23.60;46.70;;;;;;6237642;28;84093;-57
2020/12/30 08:37:26;;;;;;;131.48;52.33;;;23.60;46.90;;;;;;6235712;27;83318;-55
2020/12/30 08:40:27;;;;;;;114.93;45.05;;;23.60;46.60;;;;;;6245082;27;83007;-55
2020/12/30 08:43:27;;;;;;;132.75;47.80;;;23.60;46.70;;;;;;6233869;27;83887;-55
2020/12/30 08:46:30;;;;;;;100.78;41.53;;;23.60;47.00;;;;;;6243226;27;83024;-56
2020/12/30 08:49:30;;;;;;;110.43;42.50;;;23.60;46.70;;;;;;6242739;27;83634;-56
2020/12/30 08:52:31;;;;;;;105.55;40.15;;;23.60;46.70;;;;;;6222879;27;83340;-54
2020/12/30 08:55:31;;;;;;;94.22;38.72;;;23.50;46.90;;;;;;6242897;27;83012;-55
2020/12/30 08:58:32;;;;;;;85.32;34.65;;;23.60;46.90;;;;;;6249226;27;83567;-53
2020/12/30 09:01:32;;;;;;;90.75;36.65;;;23.60;46.60;;;;;;6230336;27;84803;-55
2020/12/30 09:04:33;;;;;;;82.18;34.78;;;23.60;46.40;;;;;;6244400;27;83548;-54
2020/12/30 09:07:33;;;;;;;72.22;32.50;;;23.70;46.40;;;;;;6237616;27;83034;-54
2020/12/30 09:10:34;;;;;;;72.15;31.92;;;23.70;46.40;;;;;;6247452;27;83151;-55
2020/12/30 09:13:34;;;;;;;71.85;29.88;;;23.70;46.10;;;;;;6249369;27;83821;-51
2020/12/30 09:16:35;;;;;;;60.45;28.13;;;23.60;46.10;;;;;;6225998;27;83363;-54
2020/12/30 09:19:35;;;;;;;61.42;26.30;;;23.60;45.80;;;;;;6244315;27;83503;-52
2020/12/30 09:22:36;;;;;;;65.07;27.52;;;23.60;45.60;;;;;;6244768;27;83252;-50
2020/12/30 09:25:36;;;;;;;55.35;23.80;;;23.60;45.50;;;;;;6227151;27;83015;-53
2020/12/30 09:28:37;;;;;;;52.97;24.05;;;23.50;45.10;;;;;;6228558;27;83507;-55
2020/12/30 09:31:38;;;;;;;50.28;24.08;;;23.50;44.60;;;;;;6229125;27;85816;-55
2020/12/30 09:34:38;;;;;;;46.70;22.50;;;23.60;44.30;;;;;;6228677;27;84016;-53
2020/12/30 09:37:39;;;;;;;48.13;21.55;;;23.60;43.80;;;;;;6228369;27;84652;-55
2020/12/30 09:40:39;;;;;;;45.20;20.83;;;23.60;43.50;;;;;;6214050;27;84052;-50
2020/12/30 09:43:40;;;;;;;42.67;21.23;;;23.60;43.30;;;;;;6238342;27;83463;-54
2020/12/30 09:46:40;;;;;;;43.10;19.95;;;23.60;43.10;;;;;;6229068;27;83632;-53
2020/12/30 09:49:41;;;;;;;40.65;20.02;;;23.50;42.80;;;;;;6244521;27;83062;-52
2020/12/30 09:52:41;;;;;;;41.10;19.58;;;23.60;42.60;;;;;;6217254;27;82958;-51
2020/12/30 09:55:42;;;;;;;38.50;18.27;;;23.50;42.10;;;;;;6241043;27;84992;-52
2020/12/30 09:58:42;;;;;;;41.47;17.83;;;23.50;41.90;;;;;;6221798;27;84148;-51
2020/12/30 10:01:43;;;;;;;35.53;16.52;;;23.60;41.40;;;;;;6243398;27;82776;-51
2020/12/30 10:04:43;;;;;;;32.58;15.85;;;23.50;41.00;;;;;;6226278;27;83903;-51
2020/12/30 10:07:44;;;;;;;32.15;16.23;;;23.50;41.10;;;;;;6237820;27;83430;-53
2020/12/30 10:10:47;;;;;;;33.10;16.08;;;23.50;41.00;;;;;;6247789;27;83004;-55
2020/12/30 10:13:47;;;;;;;31.08;15.18;;;23.60;41.90;;;;;;6248186;27;83489;-53
2020/12/30 10:16:48;;;;;;;34.80;15.88;;;23.50;42.20;;;;;;6248070;27;83968;-53
2020/12/30 10:19:49;;;;;;;30.63;14.90;;;23.50;42.90;;;;;;6248356;27;83827;-54
2020/12/30 10:22:49;;;;;;;29.05;15.52;;;23.50;42.90;;;;;;6247642;27;83052;-52
2020/12/30 10:25:50;;;;;;;28.90;15.68;;;23.50;42.70;;;;;;6239423;27;83636;-55
2020/12/30 10:28:50;;;;;;;27.08;14.50;;;23.50;42.80;;;;;;6215219;27;83912;-55
2020/12/30 10:31:51;;;;;;;32.30;13.75;;;23.50;42.50;;;;;;6214735;28;83138;-55
2020/12/30 10:34:51;;;;;;;25.17;13.57;;;23.50;42.60;;;;;;6246857;27;83636;-53
2020/12/30 10:37:52;;;;;;;24.65;12.45;;;23.50;42.60;;;;;;6246397;27;86627;-55
2020/12/30 10:40:52;;;;;;;25.25;13.52;;;23.50;42.40;;;;;;6244256;27;83969;-54
2020/12/30 10:43:53;;;;;;;23.85;12.50;;;23.50;42.20;;;;;;6219527;27;83485;-55
2020/12/30 10:46:53;;;;;;;24.23;12.23;;;23.50;42.20;;;;;;6246098;27;84168;-55
2020/12/30 10:49:54;;;;;;;24.42;11.88;;;23.50;42.70;;;;;;6239044;27;84364;-56
2020/12/30 10:52:54;;;;;;;24.30;12.75;;;23.50;42.30;;;;;;6219772;27;83381;-55
2020/12/30 10:55:55;;;;;;;28.20;13.38;;;23.50;41.90;;;;;;6245391;27;85089;-54
2020/12/30 10:58:55;;;;;;;21.95;11.75;;;23.50;41.70;;;;;;6223683;27;83208;-54
2020/12/30 11:01:56;;;;;;;19.52;11.32;;;23.50;42.30;;;;;;6222799;27;83200;-53
2020/12/30 11:04:57;;;;;;;22.40;11.27;;;23.50;42.10;;;;;;6245288;27;87157;-53
2020/12/30 11:07:57;;;;;;;26.42;11.85;;;23.40;41.90;;;;;;6241720;27;84309;-52
2020/12/30 11:10:58;;;;;;;22.33;11.85;;;23.40;41.70;;;;;;6234704;27;90055;-54
2020/12/30 11:13:58;;;;;;;23.85;11.20;;;23.40;42.20;;;;;;6235251;27;83808;-52
2020/12/30 11:16:59;;;;;;;21.15;11.48;;;23.40;43.10;;;;;;6242631;27;83436;-54
2020/12/30 11:19:59;;;;;;;22.67;11.25;;;23.30;43.90;;;;;;6245884;27;83971;-53
2020/12/30 11:23:00;;;;;;;21.88;11.57;;;23.30;44.60;;;;;;6222780;27;84073;-55
2020/12/30 11:26:00;;;;;;;20.48;10.52;;;23.40;44.80;;;;;;6223528;27;83204;-54
2020/12/30 11:29:01;;;;;;;19.02;10.80;;;23.30;45.40;;;;;;6243480;27;83389;-54
2020/12/30 11:32:01;;;;;;;23.13;9.80;;;23.30;46.00;;;;;;6223606;27;83851;-54
2020/12/30 11:35:02;;;;;;;15.77;10.63;;;23.30;46.20;;;;;;6241682;27;83512;-55
2020/12/30 11:38:02;;;;;;;25.80;10.52;;;23.20;46.60;;;;;;6225601;27;83308;-54
2020/12/30 11:41:03;;;;;;;20.98;10.13;;;23.30;46.80;;;;;;6226248;28;85959;-56
2020/12/30 11:44:04;;;;;;;17.23;10.23;;;23.30;46.80;;;;;;6225670;27;83849;-56
2020/12/30 11:47:04;;;;;;;20.38;9.60;;;23.20;46.80;;;;;;6223103;27;83265;-54
2020/12/30 11:50:04;;;;;;;23.02;10.60;;;23.20;47.20;;;;;;6227667;27;81597;-54
2020/12/30 11:53:05;;;;;;;17.52;9.93;;;23.20;47.30;;;;;;6246138;27;83298;-54
2020/12/30 11:56:06;;;;;;;18.42;9.77;;;23.30;47.30;;;;;;6254966;27;83324;-53
2020/12/30 11:59:06;;;;;;;22.38;9.73;;;23.20;47.30;;;;;;6269290;27;82238;-54
2020/12/30 12:02:07;;;;;;;18.25;9.23;;;23.20;47.30;;;;;;6251073;27;80435;-54
2020/12/30 12:05:07;;;;;;;23.70;9.05;;;23.20;47.20;;;;;;6266061;27;85999;-52
2020/12/30 12:08:08;;;;;;;19.05;9.50;;;23.20;47.20;;;;;;6274327;27;81373;-54
2020/12/30 12:11:08;;;;;;;23.42;9.07;;;23.20;47.00;;;;;;6266346;27;80229;-50
2020/12/30 12:14:09;;;;;;;16.67;9.85;;;23.20;45.90;;;;;;6252611;27;81555;-54
2020/12/30 12:17:09;;;;;;;21.38;8.93;;;23.20;45.90;;;;;;6272345;27;81579;-53
2020/12/30 12:20:10;;;;;;;19.00;9.27;;;23.20;45.70;;;;;;6273858;27;80664;-52
2020/12/30 12:23:10;;;;;;;16.83;8.35;;;23.20;45.70;;;;;;6273328;27;80949;-54
2020/12/30 12:26:11;;;;;;;16.90;8.32;;;23.20;45.40;;;;;;6269755;27;81531;-54
2020/12/30 12:29:11;;;;;;;17.67;8.45;;;23.20;45.10;;;;;;6263987;27;81087;-55
2020/12/30 12:32:12;;;;;;;19.48;9.40;;;23.20;44.90;;;;;;6261587;27;81692;-45
2020/12/30 12:35:12;;;;;;;16.38;8.90;;;23.20;44.80;;;;;;6264432;27;82661;-48
2020/12/30 12:38:13;;;;;;;21.05;8.18;;;23.20;45.10;;;;;;6267859;27;80572;-51
2020/12/30 12:41:14;;;;;;;20.33;10.10;;;23.30;44.60;;;;;;6270127;27;80755;-50
2020/12/30 12:44:15;;;;;;;22.80;10.77;;;23.20;44.40;;;;;;6268690;27;83612;-50
2020/12/30 12:47:15;;;;;;;20.15;10.13;;;23.20;44.40;;;;;;6269842;27;83410;-48
2020/12/30 12:50:16;;;;;;;23.50;9.57;;;23.20;44.70;;;;;;6270345;27;83351;-48
2020/12/30 12:53:16;;;;;;;22.50;10.25;;;23.20;44.90;;;;;;6256079;27;84179;-52
2020/12/30 12:56:17;;;;;;;22.40;9.95;;;23.20;44.90;;;;;;6269248;27;84878;-50
2020/12/30 12:59:17;;;;;;;20.08;9.32;;;23.20;44.90;;;;;;6272700;27;83432;-51
2020/12/30 13:02:18;;;;;;;22.95;10.70;;;23.30;45.10;;;;;;6274065;27;80614;-47
2020/12/30 13:05:18;;;;;;;29.20;11.75;;;23.30;45.60;;;;;;6270603;27;83701;-48
2020/12/30 13:08:19;;;;;;;26.80;11.70;;;23.30;46.50;;;;;;6265639;27;83077;-53
2020/12/30 13:11:19;;;;;;;26.90;11.75;;;23.40;47.00;;;;;;6262756;27;83697;-53
2020/12/30 13:14:20;;;;;;;19.17;11.20;;;23.40;48.30;;;;;;6269713;27;83374;-54
2020/12/30 13:17:21;;;;;;;24.13;10.60;;;23.40;47.90;;;;;;6268054;27;85807;-53
2020/12/30 13:20:21;;;;;;;26.48;11.77;;;23.40;47.60;;;;;;6265042;27;85849;-52
2020/12/30 13:23:22;;;;;;;23.23;11.45;;;23.40;48.60;;;;;;6272120;27;85187;-53
2020/12/30 13:26:22;;;;;;;20.85;11.18;;;23.50;50.00;;;;;;6256790;27;83580;-51
2020/12/30 13:29:23;;;;;;;22.25;10.93;;;23.50;51.60;;;;;;6269148;27;83107;-50
2020/12/30 13:32:23;;;;;;;23.15;10.70;;;23.50;53.20;;;;;;6276066;27;83339;-52
2020/12/30 13:35:24;;;;;;;23.75;10.73;;;23.60;54.40;;;;;;6278017;27;83402;-54
2020/12/30 13:38:24;;;;;;;19.60;10.35;;;23.60;55.50;;;;;;6300927;27;85706;-52
2020/12/30 13:41:25;;;;;;;23.67;10.48;;;23.60;55.60;;;;;;6297366;27;83397;-49
2020/12/30 13:44:25;;;;;;;22.23;10.80;;;23.60;55.90;;;;;;6272224;27;84398;-53
2020/12/30 13:47:26;;;;;;;19.55;10.45;;;23.70;56.00;;;;;;6299352;27;83095;-53
2020/12/30 13:50:26;;;;;;;26.27;11.70;;;23.60;56.20;;;;;;6282271;27;85935;-50
2020/12/30 13:53:27;;;;;;;27.55;12.23;;;23.60;56.80;;;;;;6299669;27;86752;-53
2020/12/30 13:56:28;;;;;;;118.45;53.50;;;23.60;57.10;;;;;;6279053;27;83237;-52
2020/12/30 13:59:28;;;;;;;584.05;241.65;;;23.70;57.20;;;;;;6299893;27;83109;-49
2020/12/30 14:02:29;;;;;;;611.40;280.13;;;23.70;57.30;;;;;;6295465;27;85816;-50
2020/12/30 14:05:30;;;;;;;572.90;252.95;;;23.70;56.90;;;;;;6296707;27;85973;-54
2020/12/30 14:08:31;;;;;;;541.47;241.25;;;23.60;56.70;;;;;;6305121;27;86109;-51
2020/12/30 14:11:31;;;;;;;521.72;228.23;;;23.60;55.80;;;;;;6292813;27;86013;-49
2020/12/30 14:14:32;;;;;;;719.05;300.20;;;23.60;55.20;;;;;;6286012;27;85627;-52
2020/12/30 14:17:32;;;;;;;551.03;222.23;;;23.60;55.90;;;;;;6292331;27;85784;-50
2020/12/30 14:20:33;;;;;;;476.55;182.43;;;23.50;53.60;;;;;;6292928;27;86199;-51
2020/12/30 14:23:33;;;;;;;388.90;144.50;;;23.50;51.70;;;;;;6294369;27;86494;-51
2020/12/30 14:26:34;;;;;;;338.98;127.45;;;23.40;50.10;;;;;;6295679;27;85547;-52
2020/12/30 14:29:35;;;;;;;246.68;94.07;;;23.40;48.00;;;;;;6294955;27;85260;-50
2020/12/30 14:32:35;;;;;;;195.93;74.90;;;23.40;45.90;;;;;;6293445;27;85393;-49
2020/12/30 14:35:36;;;;;;;191.75;71.85;;;23.30;42.50;;;;;;6284035;27;83400;-48
2020/12/30 14:38:37;;;;;;;176.18;69.97;;;23.30;42.50;;;;;;6288222;27;84681;-48
2020/12/30 14:41:38;;;;;;;183.10;70.35;;;23.30;42.40;;;;;;6298258;27;82796;-47
2020/12/30 14:44:38;;;;;;;179.57;67.05;;;23.40;42.50;;;;;;6273902;27;83067;-46
2020/12/30 14:47:39;;;;;;;155.48;62.65;;;23.40;42.40;;;;;;6290173;27;84654;-46
2020/12/30 14:50:39;;;;;;;156.23;57.92;;;23.40;42.50;;;;;;6292695;27;83382;-47
2020/12/30 14:53:40;;;;;;;147.82;56.85;;;23.40;42.60;;;;;;6288529;27;84198;-48
2020/12/30 14:56:40;;;;;;;150.95;59.30;;;23.40;43.00;;;;;;6293890;27;83822;-47
2020/12/30 14:59:43;;;;;;;124.38;49.60;;;23.40;43.00;;;;;;6291539;27;84458;-46
2020/12/30 15:02:45;;;;;;;122.63;48.47;;;23.40;43.00;;;;;;6261445;27;83593;-48
2020/12/30 15:05:45;;;;;;;113.25;44.50;;;23.40;43.20;;;;;;6289143;27;83132;-47
2020/12/30 15:08:46;;;;;;;108.50;42.75;;;23.40;43.10;;;;;;6294474;27;83985;-49
2020/12/30 15:11:46;;;;;;;101.07;41.10;;;23.40;43.20;;;;;;6291261;27;83928;-47
2020/12/30 15:14:47;;;;;;;94.20;39.53;;;23.50;43.30;;;;;;6288283;27;84046;-47
2020/12/30 15:17:47;;;;;;;90.93;36.05;;;23.50;43.10;;;;;;6290951;27;83029;-47
2020/12/30 15:20:48;;;;;;;82.15;34.88;;;23.50;43.40;;;;;;6297629;27;83485;-49
2020/12/30 15:23:49;;;;;;;77.20;33.80;;;23.50;43.40;;;;;;6299013;27;84575;-48